sensor_id;sensor_type;location;lat;lon;timestamp;P1;durP1;ratioP1;P2;durP2;ratioP2
59681;SDS011;45548;39.530;-9.118;2022-07-04T09:25:23;17.13;;;7.47;;
59681;SDS011;45548;39.530;-9.118;2022-07-04T09:27:53;14.85;;;6.70;;
59681;SDS011;45548;39.530;-9.118;2022-07-04T09:30:21;14.93;;;6.78;;
59681;SDS011;45548;39.530;-9.118;2022-07-04T09:32:50;13.50;;;6.40;;
59681;SDS011;45548;39.530;-9.118;2022-07-04T09:35:25;14.25;;;6.20;;
59681;SDS011;45548;39.530;-9.118;2022-07-04T09:38:00;15.15;;;7.18;;
59681;SDS011;45548;39.530;-9.118;2022-07-04T09:43:19;17.73;;;6.82;;
59681;SDS011;45548;39.530;-9.118;2022-07-04T09:48:20;15.10;;;6.32;;
59681;SDS011;45548;39.530;-9.118;2022-07-04T09:50:45;12.98;;;6.28;;
59681;SDS011;45548;39.530;-9.118;2022-07-04T09:53:11;14.25;;;6.45;;
59681;SDS011;45548;39.530;-9.118;2022-07-04T09:55:37;13.57;;;6.10;;
59681;SDS011;45548;39.530;-9.118;2022-07-04T09:58:05;13.50;;;6.70;;
59681;SDS011;45548;39.530;-9.118;2022-07-04T10:00:33;14.35;;;6.45;;
59681;SDS011;45548;39.530;-9.118;2022-07-04T10:05:46;17.67;;;7.80;;
59681;SDS011;45548;39.530;-9.118;2022-07-04T10:08:13;14.63;;;6.57;;
59681;SDS011;45548;39.530;-9.118;2022-07-04T10:10:39;16.42;;;6.30;;
59681;SDS011;45548;39.530;-9.118;2022-07-04T10:13:08;20.73;;;7.70;;
59681;SDS011;45548;39.530;-9.118;2022-07-04T10:15:39;15.73;;;6.65;;
59681;SDS011;45548;39.530;-9.118;2022-07-04T10:18:06;18.80;;;7.37;;
59681;SDS011;45548;39.530;-9.118;2022-07-04T10:20:33;20.65;;;8.20;;
59681;SDS011;45548;39.530;-9.118;2022-07-04T10:22:59;16.08;;;6.53;;
59681;SDS011;45548;39.530;-9.118;2022-07-04T10:25:25;15.20;;;7.22;;
59681;SDS011;45548;39.530;-9.118;2022-07-04T10:27:51;14.50;;;6.30;;
59681;SDS011;45548;39.530;-9.118;2022-07-04T10:30:21;13.88;;;6.75;;
59681;SDS011;45548;39.530;-9.118;2022-07-04T10:32:56;14.50;;;5.90;;
59681;SDS011;45548;39.530;-9.118;2022-07-04T10:35:59;14.93;;;6.28;;
59681;SDS011;45548;39.530;-9.118;2022-07-04T10:38:20;16.52;;;7.15;;
59681;SDS011;45548;39.530;-9.118;2022-07-04T10:54:14;13.30;;;6.18;;
59681;SDS011;45548;39.530;-9.118;2022-07-04T10:56:46;18.83;;;8.82;;
59681;SDS011;45548;39.530;-9.118;2022-07-04T10:59:13;14.65;;;6.20;;
59681;SDS011;45548;39.530;-9.118;2022-07-04T11:07:16;14.70;;;5.88;;
59681;SDS011;45548;39.530;-9.118;2022-07-04T11:09:43;14.70;;;5.70;;
59681;SDS011;45548;39.530;-9.118;2022-07-04T11:12:09;13.18;;;5.82;;
59681;SDS011;45548;39.530;-9.118;2022-07-04T11:14:44;12.55;;;5.30;;
59681;SDS011;45548;39.530;-9.118;2022-07-04T11:19:41;19.83;;;8.38;;
59681;SDS011;45548;39.530;-9.118;2022-07-04T11:22:08;13.57;;;6.03;;
59681;SDS011;45548;39.530;-9.118;2022-07-04T11:24:35;14.10;;;6.63;;
59681;SDS011;45548;39.530;-9.118;2022-07-04T11:27:01;12.38;;;5.57;;
59681;SDS011;45548;39.530;-9.118;2022-07-04T11:29:28;14.93;;;6.40;;
59681;SDS011;45548;39.530;-9.118;2022-07-04T11:31:54;12.23;;;5.60;;
59681;SDS011;45548;39.530;-9.118;2022-07-04T11:34:21;11.70;;;5.65;;
59681;SDS011;45548;39.530;-9.118;2022-07-04T11:36:48;11.77;;;6.05;;
59681;SDS011;45548;39.530;-9.118;2022-07-04T11:39:15;13.00;;;5.20;;
59681;SDS011;45548;39.530;-9.118;2022-07-04T11:41:49;11.02;;;5.63;;
59681;SDS011;45548;39.530;-9.118;2022-07-04T11:44:36;12.85;;;6.28;;
59681;SDS011;45548;39.530;-9.118;2022-07-04T11:47:23;12.23;;;5.57;;
59681;SDS011;45548;39.530;-9.118;2022-07-04T11:49:58;12.13;;;5.75;;
59681;SDS011;45548;39.530;-9.118;2022-07-04T11:52:28;14.27;;;5.78;;
59681;SDS011;45548;39.530;-9.118;2022-07-04T11:54:55;15.70;;;6.00;;
59681;SDS011;45548;39.530;-9.118;2022-07-04T11:57:25;13.00;;;6.15;;
59681;SDS011;45548;39.530;-9.118;2022-07-04T12:00:15;14.85;;;5.93;;
59681;SDS011;45548;39.530;-9.118;2022-07-04T12:02:40;14.30;;;6.20;;
59681;SDS011;45548;39.530;-9.118;2022-07-04T12:05:08;14.35;;;5.95;;
59681;SDS011;45548;39.530;-9.118;2022-07-04T12:07:39;10.75;;;4.78;;
59681;SDS011;45548;39.530;-9.118;2022-07-04T12:10:16;12.73;;;5.60;;
59681;SDS011;45548;39.530;-9.118;2022-07-04T12:15:24;17.55;;;6.15;;
59681;SDS011;45548;39.530;-9.118;2022-07-04T12:18:00;16.25;;;6.53;;
59681;SDS011;45548;39.530;-9.118;2022-07-04T12:20:26;16.17;;;6.35;;
59681;SDS011;45548;39.530;-9.118;2022-07-04T12:22:52;22.70;;;7.30;;
59681;SDS011;45548;39.530;-9.118;2022-07-04T12:25:20;16.10;;;5.30;;
59681;SDS011;45548;39.530;-9.118;2022-07-04T12:28:09;18.38;;;6.28;;
59681;SDS011;45548;39.530;-9.118;2022-07-04T12:30:37;20.40;;;7.65;;
59681;SDS011;45548;39.530;-9.118;2022-07-04T12:33:04;17.27;;;6.65;;
59681;SDS011;45548;39.530;-9.118;2022-07-04T12:38:11;18.98;;;6.80;;
59681;SDS011;45548;39.530;-9.118;2022-07-04T12:40:57;23.00;;;7.75;;
59681;SDS011;45548;39.530;-9.118;2022-07-04T12:46:05;18.02;;;7.10;;
59681;SDS011;45548;39.530;-9.118;2022-07-04T12:48:32;18.65;;;6.60;;
59681;SDS011;45548;39.530;-9.118;2022-07-04T12:53:39;19.02;;;6.22;;
59681;SDS011;45548;39.530;-9.118;2022-07-04T12:56:06;20.50;;;6.30;;
59681;SDS011;45548;39.530;-9.118;2022-07-04T12:58:33;26.73;;;6.55;;
59681;SDS011;45548;39.530;-9.118;2022-07-04T13:00:59;23.75;;;7.38;;
59681;SDS011;45548;39.530;-9.118;2022-07-04T13:03:24;26.73;;;7.18;;
59681;SDS011;45548;39.530;-9.118;2022-07-04T13:05:50;19.30;;;6.05;;
59681;SDS011;45548;39.530;-9.118;2022-07-04T13:08:15;23.52;;;6.60;;
59681;SDS011;45548;39.530;-9.118;2022-07-04T13:10:41;27.75;;;7.60;;
59681;SDS011;45548;39.530;-9.118;2022-07-04T13:13:07;25.40;;;7.70;;
59681;SDS011;45548;39.530;-9.118;2022-07-04T13:15:32;23.10;;;6.95;;
59681;SDS011;45548;39.530;-9.118;2022-07-04T13:17:58;19.52;;;6.13;;
59681;SDS011;45548;39.530;-9.118;2022-07-04T13:20:24;22.58;;;7.05;;
59681;SDS011;45548;39.530;-9.118;2022-07-04T13:22:50;22.13;;;6.97;;
59681;SDS011;45548;39.530;-9.118;2022-07-04T13:25:16;22.70;;;6.90;;
59681;SDS011;45548;39.530;-9.118;2022-07-04T13:27:42;20.27;;;6.90;;
59681;SDS011;45548;39.530;-9.118;2022-07-04T13:30:08;19.92;;;6.40;;
59681;SDS011;45548;39.530;-9.118;2022-07-04T13:32:36;22.70;;;7.60;;
59681;SDS011;45548;39.530;-9.118;2022-07-04T13:35:02;22.95;;;7.85;;
59681;SDS011;45548;39.530;-9.118;2022-07-04T13:37:28;19.15;;;6.93;;
59681;SDS011;45548;39.530;-9.118;2022-07-04T13:39:54;24.45;;;8.88;;
59681;SDS011;45548;39.530;-9.118;2022-07-04T13:42:20;22.05;;;8.00;;
59681;SDS011;45548;39.530;-9.118;2022-07-04T13:45:15;17.48;;;7.20;;
59681;SDS011;45548;39.530;-9.118;2022-07-04T13:47:40;20.17;;;7.88;;
59681;SDS011;45548;39.530;-9.118;2022-07-04T13:50:06;16.05;;;5.43;;
59681;SDS011;45548;39.530;-9.118;2022-07-04T13:52:32;18.45;;;6.53;;
59681;SDS011;45548;39.530;-9.118;2022-07-04T13:54:58;16.83;;;6.43;;
59681;SDS011;45548;39.530;-9.118;2022-07-04T13:57:26;17.02;;;5.93;;
59681;SDS011;45548;39.530;-9.118;2022-07-04T13:59:52;15.32;;;6.55;;
59681;SDS011;45548;39.530;-9.118;2022-07-04T14:02:17;16.58;;;6.05;;
59681;SDS011;45548;39.530;-9.118;2022-07-04T14:04:43;17.77;;;5.88;;
59681;SDS011;45548;39.530;-9.118;2022-07-04T14:07:08;14.80;;;6.22;;
59681;SDS011;45548;39.530;-9.118;2022-07-04T14:09:34;20.13;;;7.07;;
59681;SDS011;45548;39.530;-9.118;2022-07-04T14:11:59;14.68;;;6.13;;
59681;SDS011;45548;39.530;-9.118;2022-07-04T14:14:25;16.55;;;6.20;;
59681;SDS011;45548;39.530;-9.118;2022-07-04T14:16:51;20.40;;;7.75;;
59681;SDS011;45548;39.530;-9.118;2022-07-04T14:19:17;16.85;;;5.50;;
59681;SDS011;45548;39.530;-9.118;2022-07-04T14:21:42;16.83;;;5.95;;
59681;SDS011;45548;39.530;-9.118;2022-07-04T14:24:08;14.48;;;6.50;;
59681;SDS011;45548;39.530;-9.118;2022-07-04T14:26:34;15.07;;;6.13;;
59681;SDS011;45548;39.530;-9.118;2022-07-04T14:28:59;16.58;;;5.55;;
59681;SDS011;45548;39.530;-9.118;2022-07-04T14:31:27;14.18;;;5.35;;
59681;SDS011;45548;39.530;-9.118;2022-07-04T14:33:53;13.88;;;5.25;;
59681;SDS011;45548;39.530;-9.118;2022-07-04T14:36:21;11.90;;;5.10;;
59681;SDS011;45548;39.530;-9.118;2022-07-04T14:38:46;12.18;;;5.63;;
59681;SDS011;45548;39.530;-9.118;2022-07-04T14:41:11;11.75;;;5.25;;
59681;SDS011;45548;39.530;-9.118;2022-07-04T14:43:38;11.75;;;4.60;;
59681;SDS011;45548;39.530;-9.118;2022-07-04T14:46:05;11.80;;;5.03;;
59681;SDS011;45548;39.530;-9.118;2022-07-04T14:48:31;9.85;;;4.68;;
59681;SDS011;45548;39.530;-9.118;2022-07-04T14:50:57;11.73;;;4.82;;
59681;SDS011;45548;39.530;-9.118;2022-07-04T14:53:22;15.00;;;6.00;;
59681;SDS011;45548;39.530;-9.118;2022-07-04T14:55:49;11.63;;;5.40;;
59681;SDS011;45548;39.530;-9.118;2022-07-04T14:58:15;10.00;;;4.97;;
59681;SDS011;45548;39.530;-9.118;2022-07-04T15:00:40;13.63;;;5.32;;
59681;SDS011;45548;39.530;-9.118;2022-07-04T15:03:05;13.88;;;4.80;;
59681;SDS011;45548;39.530;-9.118;2022-07-04T15:05:31;15.13;;;5.50;;
59681;SDS011;45548;39.530;-9.118;2022-07-04T15:07:56;15.73;;;5.70;;
59681;SDS011;45548;39.530;-9.118;2022-07-04T15:10:22;13.57;;;5.00;;
59681;SDS011;45548;39.530;-9.118;2022-07-04T15:12:49;13.57;;;5.68;;
59681;SDS011;45548;39.530;-9.118;2022-07-04T15:15:14;15.20;;;4.70;;
59681;SDS011;45548;39.530;-9.118;2022-07-04T15:17:40;16.02;;;4.90;;
59681;SDS011;45548;39.530;-9.118;2022-07-04T15:20:07;17.98;;;5.35;;
59681;SDS011;45548;39.530;-9.118;2022-07-04T15:22:51;11.57;;;4.63;;
59681;SDS011;45548;39.530;-9.118;2022-07-04T15:25:35;16.13;;;5.43;;
59681;SDS011;45548;39.530;-9.118;2022-07-04T15:28:01;11.98;;;4.60;;
59681;SDS011;45548;39.530;-9.118;2022-07-04T15:30:28;15.63;;;5.15;;
59681;SDS011;45548;39.530;-9.118;2022-07-04T15:32:53;14.18;;;4.97;;
59681;SDS011;45548;39.530;-9.118;2022-07-04T15:35:19;13.48;;;5.30;;
59681;SDS011;45548;39.530;-9.118;2022-07-04T15:37:44;15.55;;;5.47;;
59681;SDS011;45548;39.530;-9.118;2022-07-04T15:40:10;9.70;;;4.10;;
59681;SDS011;45548;39.530;-9.118;2022-07-04T15:42:36;11.98;;;4.88;;
59681;SDS011;45548;39.530;-9.118;2022-07-04T15:45:01;12.90;;;4.72;;
59681;SDS011;45548;39.530;-9.118;2022-07-04T15:47:27;18.45;;;4.88;;
59681;SDS011;45548;39.530;-9.118;2022-07-04T15:49:53;13.57;;;5.38;;
59681;SDS011;45548;39.530;-9.118;2022-07-04T15:52:19;13.75;;;5.03;;
59681;SDS011;45548;39.530;-9.118;2022-07-04T15:54:44;12.82;;;5.38;;
59681;SDS011;45548;39.530;-9.118;2022-07-04T15:57:10;11.60;;;5.30;;
59681;SDS011;45548;39.530;-9.118;2022-07-04T15:59:35;15.13;;;5.05;;
59681;SDS011;45548;39.530;-9.118;2022-07-04T16:02:01;10.93;;;4.85;;
59681;SDS011;45548;39.530;-9.118;2022-07-04T16:04:26;14.65;;;5.93;;
59681;SDS011;45548;39.530;-9.118;2022-07-04T16:06:52;17.10;;;5.60;;
59681;SDS011;45548;39.530;-9.118;2022-07-04T16:09:18;15.75;;;5.90;;
59681;SDS011;45548;39.530;-9.118;2022-07-04T16:11:43;13.95;;;5.05;;
59681;SDS011;45548;39.530;-9.118;2022-07-04T16:14:11;14.68;;;5.18;;
59681;SDS011;45548;39.530;-9.118;2022-07-04T16:16:37;9.13;;;4.13;;
59681;SDS011;45548;39.530;-9.118;2022-07-04T16:19:02;12.82;;;4.80;;
59681;SDS011;45548;39.530;-9.118;2022-07-04T16:21:29;14.45;;;4.75;;
59681;SDS011;45548;39.530;-9.118;2022-07-04T16:23:54;11.40;;;4.60;;
59681;SDS011;45548;39.530;-9.118;2022-07-04T16:26:20;13.02;;;5.03;;
59681;SDS011;45548;39.530;-9.118;2022-07-04T16:28:46;14.40;;;4.78;;
59681;SDS011;45548;39.530;-9.118;2022-07-04T16:31:12;13.48;;;4.75;;
59681;SDS011;45548;39.530;-9.118;2022-07-04T16:33:37;12.30;;;5.10;;
59681;SDS011;45548;39.530;-9.118;2022-07-04T16:36:03;14.00;;;5.95;;
59681;SDS011;45548;39.530;-9.118;2022-07-04T16:38:28;11.60;;;4.95;;
59681;SDS011;45548;39.530;-9.118;2022-07-04T16:40:54;12.60;;;5.13;;
59681;SDS011;45548;39.530;-9.118;2022-07-04T16:43:19;12.57;;;5.32;;
59681;SDS011;45548;39.530;-9.118;2022-07-04T16:45:45;12.38;;;4.93;;
59681;SDS011;45548;39.530;-9.118;2022-07-04T16:48:10;9.45;;;4.63;;
59681;SDS011;45548;39.530;-9.118;2022-07-04T16:50:36;12.43;;;5.22;;
59681;SDS011;45548;39.530;-9.118;2022-07-04T16:53:04;12.23;;;4.95;;
59681;SDS011;45548;39.530;-9.118;2022-07-04T16:55:29;15.60;;;6.05;;
59681;SDS011;45548;39.530;-9.118;2022-07-04T16:57:55;17.45;;;5.85;;
59681;SDS011;45548;39.530;-9.118;2022-07-04T17:00:21;13.45;;;4.80;;
59681;SDS011;45548;39.530;-9.118;2022-07-04T17:02:46;11.13;;;4.82;;
59681;SDS011;45548;39.530;-9.118;2022-07-04T17:05:12;16.67;;;5.25;;
59681;SDS011;45548;39.530;-9.118;2022-07-04T17:07:37;15.32;;;5.13;;
59681;SDS011;45548;39.530;-9.118;2022-07-04T17:10:03;11.38;;;5.05;;
59681;SDS011;45548;39.530;-9.118;2022-07-04T17:12:29;10.65;;;4.32;;
59681;SDS011;45548;39.530;-9.118;2022-07-04T17:14:55;15.30;;;5.45;;
59681;SDS011;45548;39.530;-9.118;2022-07-04T17:17:21;11.95;;;5.22;;
59681;SDS011;45548;39.530;-9.118;2022-07-04T17:19:47;12.52;;;5.18;;
59681;SDS011;45548;39.530;-9.118;2022-07-04T17:22:12;13.95;;;4.85;;
59681;SDS011;45548;39.530;-9.118;2022-07-04T17:24:38;14.32;;;5.53;;
59681;SDS011;45548;39.530;-9.118;2022-07-04T17:27:04;16.75;;;5.68;;
59681;SDS011;45548;39.530;-9.118;2022-07-04T17:29:29;12.18;;;5.18;;
59681;SDS011;45548;39.530;-9.118;2022-07-04T17:31:55;14.93;;;5.50;;
59681;SDS011;45548;39.530;-9.118;2022-07-04T17:34:20;14.18;;;5.65;;
59681;SDS011;45548;39.530;-9.118;2022-07-04T17:36:46;12.75;;;5.38;;
59681;SDS011;45548;39.530;-9.118;2022-07-04T17:39:11;12.50;;;6.20;;
59681;SDS011;45548;39.530;-9.118;2022-07-04T17:41:37;13.75;;;5.88;;
59681;SDS011;45548;39.530;-9.118;2022-07-04T17:44:08;17.20;;;6.70;;
59681;SDS011;45548;39.530;-9.118;2022-07-04T17:46:35;13.35;;;5.20;;
59681;SDS011;45548;39.530;-9.118;2022-07-04T17:49:03;11.50;;;5.10;;
59681;SDS011;45548;39.530;-9.118;2022-07-04T17:51:29;17.95;;;6.82;;
59681;SDS011;45548;39.530;-9.118;2022-07-04T17:53:55;13.73;;;5.72;;
59681;SDS011;45548;39.530;-9.118;2022-07-04T17:56:20;12.07;;;5.88;;
59681;SDS011;45548;39.530;-9.118;2022-07-04T17:58:46;13.10;;;6.88;;
59681;SDS011;45548;39.530;-9.118;2022-07-04T18:01:11;14.75;;;6.00;;
59681;SDS011;45548;39.530;-9.118;2022-07-04T18:03:37;19.77;;;7.45;;
59681;SDS011;45548;39.530;-9.118;2022-07-04T18:06:02;15.60;;;6.82;;
59681;SDS011;45548;39.530;-9.118;2022-07-04T18:08:28;15.57;;;6.75;;
59681;SDS011;45548;39.530;-9.118;2022-07-04T18:10:53;13.68;;;6.50;;
59681;SDS011;45548;39.530;-9.118;2022-07-04T18:13:19;18.13;;;7.47;;
59681;SDS011;45548;39.530;-9.118;2022-07-04T18:15:46;18.42;;;8.20;;
59681;SDS011;45548;39.530;-9.118;2022-07-04T18:18:14;15.25;;;7.40;;
59681;SDS011;45548;39.530;-9.118;2022-07-04T18:20:40;17.70;;;8.23;;
59681;SDS011;45548;39.530;-9.118;2022-07-04T18:23:05;18.17;;;7.80;;
59681;SDS011;45548;39.530;-9.118;2022-07-04T18:25:31;19.67;;;9.00;;
59681;SDS011;45548;39.530;-9.118;2022-07-04T18:27:56;17.98;;;8.65;;
59681;SDS011;45548;39.530;-9.118;2022-07-04T18:30:22;16.75;;;9.60;;
59681;SDS011;45548;39.530;-9.118;2022-07-04T18:32:48;16.20;;;8.13;;
59681;SDS011;45548;39.530;-9.118;2022-07-04T18:35:15;11.45;;;6.70;;
59681;SDS011;45548;39.530;-9.118;2022-07-04T18:37:41;14.00;;;8.75;;
59681;SDS011;45548;39.530;-9.118;2022-07-04T18:40:07;16.95;;;9.30;;
59681;SDS011;45548;39.530;-9.118;2022-07-04T18:42:53;15.02;;;8.00;;
59681;SDS011;45548;39.530;-9.118;2022-07-04T18:45:37;17.63;;;9.10;;
59681;SDS011;45548;39.530;-9.118;2022-07-04T18:48:02;13.27;;;8.35;;
59681;SDS011;45548;39.530;-9.118;2022-07-04T18:50:28;16.80;;;9.55;;
59681;SDS011;45548;39.530;-9.118;2022-07-04T18:52:54;15.65;;;10.43;;
59681;SDS011;45548;39.530;-9.118;2022-07-04T18:55:19;15.05;;;8.65;;
59681;SDS011;45548;39.530;-9.118;2022-07-04T18:57:45;17.85;;;10.05;;
59681;SDS011;45548;39.530;-9.118;2022-07-04T19:00:10;17.65;;;11.23;;
59681;SDS011;45548;39.530;-9.118;2022-07-04T19:02:36;13.77;;;10.68;;
59681;SDS011;45548;39.530;-9.118;2022-07-04T19:05:02;17.05;;;12.20;;
59681;SDS011;45548;39.530;-9.118;2022-07-04T19:07:27;18.38;;;11.30;;
59681;SDS011;45548;39.530;-9.118;2022-07-04T19:09:53;21.88;;;15.27;;
59681;SDS011;45548;39.530;-9.118;2022-07-04T19:12:20;19.58;;;12.68;;
59681;SDS011;45548;39.530;-9.118;2022-07-04T19:14:47;20.42;;;15.52;;
59681;SDS011;45548;39.530;-9.118;2022-07-04T19:17:13;16.55;;;12.77;;
59681;SDS011;45548;39.530;-9.118;2022-07-04T19:19:39;20.35;;;14.63;;
59681;SDS011;45548;39.530;-9.118;2022-07-04T19:22:04;19.67;;;15.00;;
59681;SDS011;45548;39.530;-9.118;2022-07-04T19:24:30;16.33;;;12.63;;
59681;SDS011;45548;39.530;-9.118;2022-07-04T19:26:56;13.15;;;11.35;;
59681;SDS011;45548;39.530;-9.118;2022-07-04T19:29:21;16.63;;;12.27;;
59681;SDS011;45548;39.530;-9.118;2022-07-04T19:31:47;18.63;;;13.70;;
59681;SDS011;45548;39.530;-9.118;2022-07-04T19:34:12;16.05;;;12.13;;
59681;SDS011;45548;39.530;-9.118;2022-07-04T19:36:38;29.45;;;14.65;;
59681;SDS011;45548;39.530;-9.118;2022-07-04T19:39:03;25.02;;;16.85;;
59681;SDS011;45548;39.530;-9.118;2022-07-04T19:41:29;25.63;;;16.30;;
59681;SDS011;45548;39.530;-9.118;2022-07-04T19:43:55;24.83;;;15.68;;
59681;SDS011;45548;39.530;-9.118;2022-07-04T19:46:20;29.33;;;16.15;;
59681;SDS011;45548;39.530;-9.118;2022-07-04T19:48:46;16.80;;;12.30;;
59681;SDS011;45548;39.530;-9.118;2022-07-04T19:51:11;27.60;;;16.98;;
59681;SDS011;45548;39.530;-9.118;2022-07-04T19:53:37;22.50;;;13.10;;
59681;SDS011;45548;39.530;-9.118;2022-07-04T19:56:03;21.25;;;14.95;;
59681;SDS011;45548;39.530;-9.118;2022-07-04T19:58:29;19.05;;;12.43;;
59681;SDS011;45548;39.530;-9.118;2022-07-04T20:00:54;16.73;;;13.15;;
59681;SDS011;45548;39.530;-9.118;2022-07-04T20:03:20;23.63;;;14.30;;
59681;SDS011;45548;39.530;-9.118;2022-07-04T20:05:45;26.67;;;17.08;;
59681;SDS011;45548;39.530;-9.118;2022-07-04T20:08:11;30.88;;;18.30;;
59681;SDS011;45548;39.530;-9.118;2022-07-04T20:10:38;30.15;;;15.00;;
59681;SDS011;45548;39.530;-9.118;2022-07-04T20:13:04;22.90;;;14.02;;
59681;SDS011;45548;39.530;-9.118;2022-07-04T20:15:32;15.98;;;11.77;;
59681;SDS011;45548;39.530;-9.118;2022-07-04T20:17:57;35.22;;;16.85;;
59681;SDS011;45548;39.530;-9.118;2022-07-04T20:20:23;25.90;;;12.43;;
59681;SDS011;45548;39.530;-9.118;2022-07-04T20:22:48;28.33;;;14.50;;
59681;SDS011;45548;39.530;-9.118;2022-07-04T20:25:14;39.38;;;18.25;;
59681;SDS011;45548;39.530;-9.118;2022-07-04T20:27:40;27.35;;;15.48;;
59681;SDS011;45548;39.530;-9.118;2022-07-04T20:30:07;43.70;;;22.23;;
59681;SDS011;45548;39.530;-9.118;2022-07-04T20:32:34;42.40;;;18.77;;
59681;SDS011;45548;39.530;-9.118;2022-07-04T20:35:04;22.52;;;12.80;;
59681;SDS011;45548;39.530;-9.118;2022-07-04T20:37:35;34.40;;;17.75;;
59681;SDS011;45548;39.530;-9.118;2022-07-04T20:40:01;24.10;;;15.02;;
59681;SDS011;45548;39.530;-9.118;2022-07-04T20:42:28;17.83;;;11.63;;
59681;SDS011;45548;39.530;-9.118;2022-07-04T20:44:53;14.23;;;10.20;;
59681;SDS011;45548;39.530;-9.118;2022-07-04T20:47:19;17.85;;;12.75;;
59681;SDS011;45548;39.530;-9.118;2022-07-04T20:49:45;16.45;;;11.48;;
59681;SDS011;45548;39.530;-9.118;2022-07-04T20:52:11;19.60;;;12.50;;
59681;SDS011;45548;39.530;-9.118;2022-07-04T20:54:39;21.80;;;12.43;;
59681;SDS011;45548;39.530;-9.118;2022-07-04T20:57:06;15.77;;;10.90;;
59681;SDS011;45548;39.530;-9.118;2022-07-04T20:59:32;18.83;;;12.07;;
59681;SDS011;45548;39.530;-9.118;2022-07-04T21:02:01;20.02;;;14.02;;
59681;SDS011;45548;39.530;-9.118;2022-07-04T21:04:28;19.40;;;12.50;;
59681;SDS011;45548;39.530;-9.118;2022-07-04T21:06:53;14.93;;;10.82;;
59681;SDS011;45548;39.530;-9.118;2022-07-04T21:09:19;19.95;;;11.88;;
59681;SDS011;45548;39.530;-9.118;2022-07-04T21:11:44;22.48;;;12.60;;
59681;SDS011;45548;39.530;-9.118;2022-07-04T21:14:10;24.75;;;13.02;;
59681;SDS011;45548;39.530;-9.118;2022-07-04T21:16:35;24.38;;;13.93;;
59681;SDS011;45548;39.530;-9.118;2022-07-04T21:19:01;19.45;;;11.75;;
59681;SDS011;45548;39.530;-9.118;2022-07-04T21:21:26;21.35;;;13.00;;
59681;SDS011;45548;39.530;-9.118;2022-07-04T21:23:52;17.08;;;11.43;;
59681;SDS011;45548;39.530;-9.118;2022-07-04T21:26:17;16.42;;;11.15;;
59681;SDS011;45548;39.530;-9.118;2022-07-04T21:28:43;21.77;;;13.32;;
59681;SDS011;45548;39.530;-9.118;2022-07-04T21:31:08;18.42;;;12.10;;
59681;SDS011;45548;39.530;-9.118;2022-07-04T21:33:34;16.75;;;10.43;;
59681;SDS011;45548;39.530;-9.118;2022-07-04T21:36:00;18.35;;;11.55;;
59681;SDS011;45548;39.530;-9.118;2022-07-04T21:38:27;19.15;;;12.77;;
59681;SDS011;45548;39.530;-9.118;2022-07-04T21:40:53;15.65;;;12.23;;
59681;SDS011;45548;39.530;-9.118;2022-07-04T21:43:21;20.70;;;13.45;;
59681;SDS011;45548;39.530;-9.118;2022-07-04T21:45:47;22.40;;;14.98;;
59681;SDS011;45548;39.530;-9.118;2022-07-04T21:48:13;22.08;;;14.68;;
59681;SDS011;45548;39.530;-9.118;2022-07-04T21:50:39;26.35;;;16.52;;
59681;SDS011;45548;39.530;-9.118;2022-07-04T21:53:05;19.25;;;13.30;;
59681;SDS011;45548;39.530;-9.118;2022-07-04T21:55:30;17.17;;;13.70;;
59681;SDS011;45548;39.530;-9.118;2022-07-04T21:57:56;18.90;;;14.85;;
59681;SDS011;45548;39.530;-9.118;2022-07-04T22:00:23;19.02;;;13.48;;
59681;SDS011;45548;39.530;-9.118;2022-07-04T22:02:48;19.75;;;12.65;;
59681;SDS011;45548;39.530;-9.118;2022-07-04T22:05:14;17.55;;;14.15;;
59681;SDS011;45548;39.530;-9.118;2022-07-04T22:07:39;15.73;;;10.18;;
59681;SDS011;45548;39.530;-9.118;2022-07-04T22:10:05;16.10;;;10.13;;
59681;SDS011;45548;39.530;-9.118;2022-07-04T22:12:31;15.13;;;9.38;;
59681;SDS011;45548;39.530;-9.118;2022-07-04T22:14:57;14.40;;;10.50;;
59681;SDS011;45548;39.530;-9.118;2022-07-04T22:17:23;18.25;;;10.75;;
59681;SDS011;45548;39.530;-9.118;2022-07-04T22:19:49;12.25;;;9.80;;
59681;SDS011;45548;39.530;-9.118;2022-07-04T22:22:15;15.93;;;10.82;;
59681;SDS011;45548;39.530;-9.118;2022-07-04T22:24:41;15.35;;;10.90;;
59681;SDS011;45548;39.530;-9.118;2022-07-04T22:27:06;16.00;;;10.15;;
59681;SDS011;45548;39.530;-9.118;2022-07-04T22:29:32;18.15;;;10.05;;
59681;SDS011;45548;39.530;-9.118;2022-07-04T22:31:57;14.25;;;10.40;;
59681;SDS011;45548;39.530;-9.118;2022-07-04T22:34:23;10.98;;;8.43;;
59681;SDS011;45548;39.530;-9.118;2022-07-04T22:36:48;17.40;;;10.70;;
59681;SDS011;45548;39.530;-9.118;2022-07-04T22:39:14;23.45;;;13.55;;
59681;SDS011;45548;39.530;-9.118;2022-07-04T22:41:39;12.20;;;9.70;;
59681;SDS011;45548;39.530;-9.118;2022-07-04T22:44:05;22.08;;;12.07;;
59681;SDS011;45548;39.530;-9.118;2022-07-04T22:46:30;21.92;;;14.30;;
59681;SDS011;45548;39.530;-9.118;2022-07-04T22:48:56;22.27;;;12.88;;
59681;SDS011;45548;39.530;-9.118;2022-07-04T22:51:21;48.72;;;17.80;;
59681;SDS011;45548;39.530;-9.118;2022-07-04T22:53:47;24.70;;;15.35;;
59681;SDS011;45548;39.530;-9.118;2022-07-04T22:56:31;20.98;;;14.40;;
